createdAt,value
2022-08-22T00:00:08.053Z,0.0
2022-08-22T00:02:58.750Z,0.0
2022-08-22T00:03:10.808Z,0.0
2022-08-22T00:03:11.355Z,0.0
2022-08-22T00:05:08.559Z,0.0
2022-08-22T00:10:08.281Z,0.0
2022-08-22T00:15:42.625Z,0.0
2022-08-22T00:20:08.495Z,0.0
2022-08-22T00:25:08.204Z,0.0
2022-08-22T00:30:08.458Z,0.0
2022-08-22T00:35:08.131Z,0.0
2022-08-22T00:40:07.885Z,0.0
2022-08-22T00:45:18.569Z,0.0
2022-08-22T00:50:08.269Z,0.0
2022-08-22T00:55:07.942Z,0.0
2022-08-22T01:00:12.258Z,0.0
2022-08-22T01:05:07.959Z,0.0
2022-08-22T01:10:07.753Z,0.0
2022-08-22T01:15:08.477Z,0.0
2022-08-22T01:20:08.187Z,0.0
2022-08-22T01:25:08.476Z,0.0
2022-08-22T01:30:08.420Z,0.0
2022-08-22T01:35:07.908Z,0.0
2022-08-22T01:40:08.729Z,0.0
2022-08-22T01:45:08.491Z,0.0
2022-08-22T01:50:11.751Z,0.0
2022-08-22T01:55:08.512Z,0.0
2022-08-22T02:00:08.222Z,0.0
2022-08-22T02:05:08.131Z,0.0
2022-08-22T02:10:07.822Z,0.0
2022-08-22T02:15:08.541Z,0.0
2022-08-22T02:20:08.260Z,0.0
2022-08-22T02:25:09.287Z,0.0
2022-08-22T02:30:08.022Z,0.0
2022-08-22T02:35:07.745Z,0.0
2022-08-22T02:40:08.479Z,0.0
2022-08-22T02:45:08.234Z,0.0
2022-08-22T02:50:12.785Z,0.0
2022-08-22T02:55:17.862Z,0.0
2022-08-22T03:00:31.792Z,0.0
2022-08-22T03:05:07.835Z,0.0
2022-08-22T03:10:08.011Z,0.0
2022-08-22T03:15:07.721Z,0.0
2022-08-22T03:20:18.443Z,0.0
2022-08-22T03:25:08.174Z,0.0
2022-08-22T03:30:07.837Z,0.0
2022-08-22T03:35:08.544Z,0.0
2022-08-22T03:40:08.350Z,0.0
2022-08-22T03:45:13.563Z,0.0
2022-08-22T03:50:10.740Z,0.0
2022-08-22T03:55:08.438Z,0.0
2022-08-22T04:00:08.144Z,0.0
2022-08-22T04:05:02.114Z,0.0
2022-08-22T04:10:02.031Z,0.0
2022-08-22T04:15:02.040Z,0.0
2022-08-22T04:20:01.915Z,0.0
2022-08-22T04:25:07.134Z,0.0
2022-08-22T04:30:02.674Z,0.0
2022-08-22T04:35:02.539Z,0.0
2022-08-22T04:40:02.374Z,0.0
2022-08-22T04:45:02.191Z,0.0
2022-08-22T04:50:07.381Z,0.0
2022-08-22T04:55:02.233Z,0.0
2022-08-22T05:00:02.068Z,0.0
2022-08-22T05:05:01.910Z,0.0
2022-08-22T05:10:10.526Z,0.0
2022-08-22T05:15:02.275Z,0.0
2022-08-22T05:20:02.841Z,0.0
2022-08-22T05:25:02.765Z,0.0
2022-08-22T05:30:02.588Z,0.0
2022-08-22T05:35:02.449Z,0.0
2022-08-22T05:40:02.351Z,0.0
2022-08-22T05:45:02.383Z,0.0
2022-08-22T05:50:12.226Z,0.0
2022-08-22T05:55:01.997Z,0.0
2022-08-22T06:00:01.729Z,0.0
2022-08-22T06:05:02.526Z,0.0
2022-08-22T06:10:02.387Z,0.0
2022-08-22T06:15:02.203Z,0.0
2022-08-22T06:20:04.458Z,0.0
2022-08-22T06:25:12.312Z,0.0
2022-08-22T06:30:02.724Z,0.0
2022-08-22T06:35:01.780Z,0.0
2022-08-22T06:40:01.967Z,0.0
2022-08-22T06:45:02.038Z,0.0
2022-08-22T06:50:02.043Z,0.0
2022-08-22T06:55:02.126Z,0.0
2022-08-22T07:00:02.004Z,0.0
2022-08-22T07:05:01.919Z,0.0
2022-08-22T07:10:02.743Z,0.0
2022-08-22T07:15:09.562Z,0.0
2022-08-22T07:20:12.390Z,0.0
2022-08-22T07:25:02.268Z,0.0
2022-08-22T07:30:02.119Z,0.0
2022-08-22T07:35:01.902Z,0.0
2022-08-22T07:40:02.772Z,0.0
2022-08-22T07:45:02.659Z,0.0
2022-08-22T07:50:02.483Z,0.0
2022-08-22T07:55:02.361Z,0.0
2022-08-22T08:00:02.243Z,0.0
2022-08-22T08:05:02.171Z,0.0
2022-08-22T08:10:02.128Z,0.0
2022-08-22T08:15:02.184Z,0.0
2022-08-22T08:20:02.064Z,0.0
2022-08-22T08:25:02.218Z,0.0
2022-08-22T08:30:02.026Z,0.0
2022-08-22T08:35:01.884Z,0.0
2022-08-22T08:40:02.530Z,0.0
2022-08-22T08:45:02.476Z,0.0
2022-08-22T08:50:02.235Z,0.0
2022-08-22T08:55:21.889Z,0.0
2022-08-22T09:00:02.638Z,0.0
2022-08-22T09:05:02.682Z,0.0
2022-08-22T09:10:02.796Z,0.0
2022-08-22T09:15:14.523Z,0.0
2022-08-22T09:20:02.439Z,0.0
2022-08-22T09:25:06.034Z,0.0
2022-08-22T09:30:02.459Z,0.0
2022-08-22T09:35:02.585Z,0.0
2022-08-22T09:40:16.019Z,0.0
2022-08-22T09:45:02.701Z,0.0
2022-08-22T09:50:01.820Z,0.0
2022-08-22T09:55:02.601Z,0.0
2022-08-22T10:00:02.406Z,0.0
2022-08-22T10:05:03.947Z,0.0
2022-08-22T10:10:12.061Z,0.0
2022-08-22T10:15:01.829Z,0.0
2022-08-22T10:20:02.740Z,0.0
2022-08-22T10:25:02.584Z,0.0
2022-08-22T10:30:08.690Z,0.0
2022-08-22T10:35:02.676Z,1.4
2022-08-22T10:40:02.474Z,0.0
2022-08-22T10:45:02.404Z,0.0
2022-08-22T10:50:02.550Z,0.0
2022-08-22T10:55:05.724Z,0.0
2022-08-22T11:00:11.673Z,0.0
2022-08-22T11:05:02.568Z,0.0
2022-08-22T11:10:02.475Z,0.0
2022-08-22T11:15:03.014Z,0.0
2022-08-22T11:20:02.015Z,0.0
2022-08-22T11:25:04.370Z,0.0
2022-08-22T11:30:02.686Z,0.0
2022-08-22T11:35:02.529Z,0.0
2022-08-22T11:40:02.463Z,0.0
2022-08-22T11:45:02.446Z,0.0
2022-08-22T11:50:02.392Z,0.0
2022-08-22T11:55:02.568Z,0.0
2022-08-22T12:00:02.502Z,0.0
2022-08-22T12:05:02.453Z,0.0
2022-08-22T12:10:13.815Z,0.0
2022-08-22T12:15:02.996Z,0.0
2022-08-22T12:20:16.146Z,0.0
2022-08-22T12:25:03.225Z,0.0
2022-08-22T12:30:02.073Z,0.0
2022-08-22T12:35:14.078Z,0.0
2022-08-22T12:40:02.406Z,0.0
2022-08-22T12:45:02.303Z,0.0
2022-08-22T12:50:02.324Z,0.0
2022-08-22T12:55:02.085Z,0.0
2022-08-22T13:00:02.009Z,0.0
2022-08-22T13:05:01.795Z,0.0
2022-08-22T13:10:08.716Z,0.0
2022-08-22T13:15:02.557Z,0.0
2022-08-22T13:20:02.419Z,0.0
2022-08-22T13:25:02.255Z,0.0
2022-08-22T13:30:01.803Z,0.0
2022-08-22T13:35:01.814Z,0.0
2022-08-22T13:40:02.727Z,0.0
2022-08-22T13:45:04.356Z,0.0
2022-08-22T13:50:02.731Z,0.0
2022-08-22T13:55:02.549Z,0.0
2022-08-22T14:00:12.411Z,0.0
2022-08-22T14:05:02.165Z,0.0
2022-08-22T14:10:02.559Z,0.0
2022-08-22T14:15:02.580Z,0.0
2022-08-22T14:20:02.523Z,1.1
2022-08-22T14:25:02.628Z,1.4
2022-08-22T14:30:02.817Z,1.4
2022-08-22T14:35:02.877Z,1.4
2022-08-22T14:40:02.706Z,0.0
2022-08-22T14:45:02.005Z,0.0
2022-08-22T14:50:02.732Z,0.0
2022-08-22T14:55:06.250Z,0.0
2022-08-22T15:00:02.062Z,0.0
2022-08-22T15:05:01.937Z,0.0
2022-08-22T15:10:03.122Z,0.0
2022-08-22T15:15:02.245Z,0.0
2022-08-22T15:20:12.094Z,1.1
2022-08-22T15:25:01.974Z,0.0
2022-08-22T15:30:01.759Z,0.0
2022-08-22T15:35:02.472Z,0.0
2022-08-22T15:40:02.978Z,0.0
2022-08-22T15:45:02.540Z,0.0
2022-08-22T15:50:02.532Z,0.0
2022-08-22T15:55:02.338Z,2.0
2022-08-22T16:00:12.663Z,2.0
2022-08-22T16:05:02.483Z,1.7
2022-08-22T16:10:02.368Z,1.7
2022-08-22T16:15:02.174Z,1.2
2022-08-22T16:20:02.024Z,1.2
2022-08-22T16:25:01.856Z,0.0
2022-08-22T16:30:02.680Z,0.0
2022-08-22T16:35:02.534Z,0.0
2022-08-22T16:40:02.500Z,0.0
2022-08-22T16:45:02.373Z,0.0
2022-08-22T16:50:12.445Z,1.0
2022-08-22T16:55:02.308Z,1.0
2022-08-22T17:00:02.149Z,1.3
2022-08-22T17:05:02.269Z,1.3
2022-08-22T17:10:02.539Z,0.0
2022-08-22T17:15:02.477Z,0.0
2022-08-22T17:20:02.425Z,0.0
2022-08-22T17:25:02.379Z,0.0
2022-08-22T17:30:02.315Z,1.3
2022-08-22T17:35:04.415Z,1.3
2022-08-22T17:40:02.399Z,0.0
2022-08-22T17:45:02.272Z,0.0
2022-08-22T17:50:02.093Z,0.0
2022-08-22T17:55:02.170Z,0.0
2022-08-22T18:00:01.948Z,1.4
2022-08-22T18:05:01.811Z,1.4
2022-08-22T18:10:12.618Z,0.0
2022-08-22T18:15:02.447Z,0.0
2022-08-22T18:20:02.304Z,0.0
2022-08-22T18:25:02.092Z,0.0
2022-08-22T18:30:01.964Z,0.0
2022-08-22T18:35:11.747Z,0.0
2022-08-22T18:40:02.595Z,0.0
2022-08-22T18:45:02.569Z,0.0
2022-08-22T18:50:02.390Z,0.0
2022-08-22T18:55:02.202Z,0.0
2022-08-22T19:00:02.076Z,0.0
2022-08-22T19:05:11.866Z,0.0
2022-08-22T19:10:02.781Z,0.0
2022-08-22T19:15:02.844Z,0.0
2022-08-22T19:20:02.698Z,0.0
2022-08-22T19:25:02.525Z,0.0
2022-08-22T19:30:02.363Z,0.0
2022-08-22T19:35:02.341Z,0.0
2022-08-22T19:40:02.333Z,0.0
2022-08-22T19:45:05.005Z,0.0
2022-08-22T19:50:02.018Z,0.0
2022-08-22T19:55:02.721Z,0.0
2022-08-22T20:00:02.651Z,0.0
2022-08-22T20:05:02.588Z,0.0
2022-08-22T20:10:02.604Z,0.0
2022-08-22T20:15:02.573Z,0.0
2022-08-22T20:20:18.724Z,0.0
2022-08-22T20:25:02.015Z,0.0
2022-08-22T20:30:01.972Z,0.0
2022-08-22T20:35:21.712Z,0.0
2022-08-22T20:40:08.164Z,0.0
2022-08-22T20:45:12.191Z,0.0
2022-08-22T20:50:08.233Z,0.0
2022-08-22T20:55:07.917Z,0.0
2022-08-22T21:00:08.624Z,0.0
2022-08-22T21:05:08.326Z,0.0
2022-08-22T21:10:22.245Z,0.0
2022-08-22T21:15:08.589Z,0.0
2022-08-22T21:20:08.342Z,0.0
2022-08-22T21:25:08.086Z,0.0
2022-08-22T21:30:07.793Z,0.0
2022-08-22T21:35:08.468Z,0.0
2022-08-22T21:40:08.210Z,0.0
2022-08-22T21:45:08.336Z,0.0
2022-08-22T21:50:08.038Z,0.0
2022-08-22T21:55:07.719Z,0.0
2022-08-22T22:00:08.438Z,0.0
2022-08-22T22:05:08.465Z,0.0
2022-08-22T22:10:08.184Z,0.0
2022-08-22T22:15:07.883Z,0.0
2022-08-22T22:20:08.631Z,0.0
2022-08-22T22:25:39.801Z,0.0
2022-08-22T22:30:08.619Z,0.0
2022-08-22T22:35:08.339Z,0.0
2022-08-22T22:40:08.113Z,0.0
2022-08-22T22:45:07.876Z,0.0
2022-08-22T22:50:08.546Z,0.0
2022-08-22T22:55:08.211Z,0.0
2022-08-22T23:01:00.863Z,0.0
2022-08-22T23:05:07.823Z,0.0
2022-08-22T23:10:08.597Z,0.0
2022-08-22T23:15:08.295Z,0.0
2022-08-22T23:20:07.989Z,0.0
2022-08-22T23:25:07.691Z,0.0
2022-08-22T23:30:08.407Z,0.0
2022-08-22T23:35:08.075Z,0.0
2022-08-22T23:40:07.894Z,0.0
2022-08-22T23:45:07.665Z,0.0
2022-08-22T23:50:08.352Z,0.0
2022-08-22T23:55:08.057Z,0.0
